Time;durP1;ratioP1;P1;durP2;ratioP2;P2;SDS_P1;SDS_P2;PMS_P1;PMS_P2;Temp;Humidity;BMP_temperature;BMP_pressure;BME280_temperature;BME280_humidity;BME280_pressure;Samples;Min_cycle;Max_cycle;Signal;HPM_P1;HPM_P2
2023/01/02 00:00:48;;;;;;;42.67;37.70;;;;;;;5.86;100.00;102837.69;2066291;28;20750;-64
2023/01/02 00:01:49;;;;;;;46.40;38.60;;;;;;;5.40;100.00;102760.34;2063049;28;20244;-64
2023/01/02 00:02:49;;;;;;;49.93;40.50;;;;;;;5.83;100.00;102826.53;2064031;28;20291;-64
2023/01/02 00:03:49;;;;;;;45.17;38.70;;;;;;;5.79;100.00;102822.88;2064573;28;20185;-64
2023/01/02 00:04:50;;;;;;;46.30;40.03;;;;;;;5.76;100.00;102824.38;2070932;28;20577;-64
2023/01/02 00:05:50;;;;;;;46.03;39.70;;;;;;;5.74;100.00;102818.38;2064095;28;20754;-64
2023/01/02 00:06:51;;;;;;;45.93;39.53;;;;;;;5.71;100.00;102815.53;2064489;28;20647;-64
2023/01/02 00:07:51;;;;;;;53.43;42.93;;;;;;;5.53;100.00;102792.19;2070130;28;20412;-64
2023/01/02 00:08:52;;;;;;;50.87;41.80;;;;;;;5.23;100.00;102746.88;2067286;28;20211;-64
2023/01/02 00:09:52;;;;;;;47.33;41.70;;;;;;;5.62;100.00;102806.59;2064388;28;20197;-64
2023/01/02 00:10:52;;;;;;;59.20;42.30;;;;;;;5.57;100.00;102815.09;2064335;28;20277;-64
2023/01/02 00:11:53;;;;;;;90.07;42.43;;;;;;;5.51;100.00;102814.53;2063892;28;20181;-64
2023/01/02 00:12:53;;;;;;;123.60;46.43;;;;;;;4.84;100.00;102711.81;2079423;28;20196;-64
2023/01/02 00:13:54;;;;;;;196.33;48.27;;;;;;;5.45;100.00;102809.63;2080229;28;20703;-64
2023/01/02 00:14:54;;;;;;;44.17;39.13;;;;;;;5.33;100.00;102793.13;2064489;28;20220;-64
2023/01/02 00:15:54;;;;;;;65.83;43.37;;;;;;;5.38;100.00;102817.66;2064398;28;20197;-64
2023/01/02 00:16:55;;;;;;;65.70;42.60;;;;;;;5.35;100.00;102807.31;2064290;28;20232;-64
2023/01/02 00:17:55;;;;;;;50.67;43.30;;;;;;;5.32;100.00;102811.56;2063930;28;20713;-64
2023/01/02 00:18:56;;;;;;;56.37;44.27;;;;;;;5.28;100.00;102810.63;2064344;28;20690;-64
2023/01/02 00:19:56;;;;;;;86.87;44.67;;;;;;;5.22;100.00;102813.97;2064336;28;20193;-64
2023/01/02 00:21:02;;;;;;;128.07;48.57;;;;;;;5.16;100.00;102807.91;2064087;28;20208;-64
2023/01/02 00:22:03;;;;;;;169.50;53.88;;;;;;;4.17;100.00;102664.84;2064126;28;20236;-64
2023/01/02 00:23:03;;;;;;;133.43;48.83;;;;;;;4.38;100.00;102712.22;2064224;28;20225;-64
2023/01/02 00:24:04;;;;;;;282.47;57.90;;;;;;;4.97;100.00;102826.88;2064209;28;20572;-64
2023/01/02 00:25:05;;;;;;;241.23;50.40;;;;;;;4.96;100.00;102813.47;2064309;28;20205;-64
2023/01/02 00:26:06;;;;;;;272.17;54.33;;;;;;;4.44;100.00;102752.03;2064328;28;20568;-64
2023/01/02 00:27:06;;;;;;;239.30;56.58;;;;;;;4.91;100.00;102827.44;2064271;28;20880;-64
2023/01/02 00:28:07;;;;;;;123.80;53.93;;;;;;;4.48;100.00;102755.72;2064035;28;20181;-64
2023/01/02 00:29:07;;;;;;;56.53;48.17;;;;;;;4.90;100.00;102823.09;2064350;28;20208;-64
2023/01/02 00:30:08;;;;;;;61.33;53.87;;;;;;;4.86;100.00;102824.91;2064418;28;20537;-64
2023/01/02 00:31:12;;;;;;;92.53;55.60;;;;;;;4.88;100.00;102828.13;2063620;28;20275;-64
2023/01/02 00:32:13;;;;;;;66.65;52.95;;;;;;;4.72;100.00;102810.72;2063880;28;20212;-64
2023/01/02 00:33:14;;;;;;;86.75;56.95;;;;;;;4.01;100.00;102702.31;2064041;28;20188;-64
2023/01/02 00:34:14;;;;;;;96.78;61.20;;;;;;;4.84;100.00;102839.00;2064442;28;20200;-64
2023/01/02 00:35:15;;;;;;;66.07;54.37;;;;;;;4.87;100.00;102835.56;2064087;28;20189;-64
2023/01/02 00:36:15;;;;;;;58.30;49.40;;;;;;;4.88;100.00;102839.91;2060965;28;20277;-64
2023/01/02 00:37:16;;;;;;;59.03;50.77;;;;;;;4.91;100.00;102832.94;2058370;28;20186;-64
2023/01/02 00:38:17;;;;;;;59.97;51.37;;;;;;;4.93;100.00;102831.44;2062478;28;20635;-64
2023/01/02 00:39:18;;;;;;;52.97;46.40;;;;;;;4.93;100.00;102836.94;2057243;28;20186;-64
2023/01/02 00:40:18;;;;;;;52.97;47.13;;;;;;;4.36;100.00;102753.75;2064700;28;20181;-64
2023/01/02 00:41:20;;;;;;;58.93;49.03;;;;;;;4.89;100.00;102825.06;2056459;28;20225;-63
2023/01/02 00:42:20;;;;;;;55.33;46.85;;;;;;;4.99;100.00;102834.78;2062268;28;20201;-64
2023/01/02 00:43:21;;;;;;;57.37;47.90;;;;;;;4.98;100.00;102833.97;2059110;28;20228;-64
2023/01/02 00:44:22;;;;;;;58.20;47.63;;;;;;;5.00;100.00;102828.16;2060134;28;20237;-64
2023/01/02 00:45:22;;;;;;;58.13;45.57;;;;;;;4.99;100.00;102832.88;2060443;28;20312;-64
2023/01/02 00:46:23;;;;;;;53.07;43.53;;;;;;;4.97;100.00;102829.63;2057259;28;20191;-64
2023/01/02 00:47:23;;;;;;;55.77;44.63;;;;;;;4.95;100.00;102837.44;2063479;28;20209;-64
2023/01/02 00:48:24;;;;;;;52.60;44.53;;;;;;;4.78;100.00;102807.38;2063910;28;20255;-64
2023/01/02 00:49:24;;;;;;;53.10;43.47;;;;;;;4.92;100.00;102835.34;2064032;28;20258;-64
2023/01/02 00:50:24;;;;;;;52.13;45.03;;;;;;;4.92;100.00;102829.06;2064252;28;20201;-64
2023/01/02 00:51:25;;;;;;;54.00;44.13;;;;;;;4.85;100.00;102824.13;2063614;28;20203;-64
2023/01/02 00:52:25;;;;;;;49.37;42.73;;;;;;;4.92;100.00;102832.59;2063666;28;20216;-64
2023/01/02 00:53:26;;;;;;;47.70;40.70;;;;;;;4.51;100.00;102769.56;2064184;28;20228;-64
2023/01/02 00:54:26;;;;;;;49.10;41.90;;;;;;;4.88;100.00;102833.63;2064116;28;20186;-64
2023/01/02 00:55:27;;;;;;;49.40;40.97;;;;;;;4.57;100.00;102778.41;2064806;28;20180;-64
2023/01/02 00:56:27;;;;;;;48.97;42.17;;;;;;;4.81;100.00;102816.88;2072640;28;20189;-64
2023/01/02 00:57:27;;;;;;;50.30;42.20;;;;;;;4.87;100.00;102826.53;2064559;28;20284;-64
2023/01/02 00:58:28;;;;;;;47.43;40.83;;;;;;;4.87;100.00;102829.28;2063039;28;20614;-64
2023/01/02 00:59:28;;;;;;;49.93;43.03;;;;;;;4.86;100.00;102825.72;2058139;28;20197;-64
2023/01/02 01:00:29;;;;;;;52.43;43.07;;;;;;;4.85;100.00;102829.63;2060330;28;20205;-64
2023/01/02 01:01:29;;;;;;;51.57;44.10;;;;;;;4.25;100.00;102727.09;2063423;28;20258;-64
2023/01/02 01:02:30;;;;;;;51.80;44.67;;;;;;;4.86;100.00;102825.72;2063800;28;20260;-64
2023/01/02 01:03:30;;;;;;;51.10;43.00;;;;;;;4.87;100.00;102818.31;2064233;28;20260;-64
2023/01/02 01:04:34;;;;;;;55.07;46.53;;;;;;;4.87;100.00;102818.31;2064275;28;20347;-64
2023/01/02 01:05:37;;;;;;;54.78;45.25;;;;;;;4.86;100.00;102827.66;2056478;28;20221;-64
2023/01/02 01:06:37;;;;;;;54.83;46.35;;;;;;;4.84;100.00;102825.28;2063267;28;20200;-64
2023/01/02 01:07:38;;;;;;;50.00;43.03;;;;;;;4.84;100.00;102817.03;2068030;28;20207;-64
2023/01/02 01:08:39;;;;;;;47.30;40.80;;;;;;;4.82;100.00;102816.56;2066948;28;20200;-64
2023/01/02 01:09:39;;;;;;;51.80;39.70;;;;;;;4.80;100.00;102818.84;2064264;28;20224;-64
2023/01/02 01:10:40;;;;;;;49.40;40.90;;;;;;;4.19;100.00;102726.47;2064131;28;20331;-64
2023/01/02 01:11:40;;;;;;;51.50;40.63;;;;;;;4.70;100.00;102802.00;2063502;28;20200;-64
2023/01/02 01:12:40;;;;;;;49.70;40.77;;;;;;;4.80;100.00;102818.84;2063677;28;20188;-64
2023/01/02 01:13:41;;;;;;;51.27;40.37;;;;;;;4.75;100.00;102810.84;2064239;28;20169;-64
2023/01/02 01:14:42;;;;;;;46.53;38.93;;;;;;;4.80;100.00;102815.28;2071783;28;20290;-64
2023/01/02 01:15:43;;;;;;;49.53;41.08;;;;;;;4.53;100.00;102782.97;2065593;28;20187;-64
2023/01/02 01:16:43;;;;;;;50.13;42.63;;;;;;;4.29;100.00;102758.19;2064202;28;20205;-64
2023/01/02 01:17:44;;;;;;;51.37;43.27;;;;;;;4.73;100.00;102820.56;2063604;28;20608;-64
2023/01/02 01:18:46;;;;;;;56.43;45.60;;;;;;;4.75;100.00;102827.31;2063986;28;20215;-64
2023/01/02 01:19:46;;;;;;;51.58;42.45;;;;;;;4.77;100.00;102827.75;2064177;28;20190;-64
2023/01/02 01:20:46;;;;;;;47.77;41.03;;;;;;;4.77;100.00;102826.97;2063886;28;20175;-64
2023/01/02 01:21:47;;;;;;;45.10;39.57;;;;;;;4.76;100.00;102831.66;2063747;28;20206;-64
2023/01/02 01:22:47;;;;;;;45.50;39.10;;;;;;;4.74;100.00;102822.16;2063634;28;20197;-64
2023/01/02 01:23:54;;;;;;;48.03;38.27;;;;;;;4.44;100.00;102790.47;2064182;28;20675;-64
2023/01/02 01:24:54;;;;;;;46.55;38.22;;;;;;;4.71;100.00;102823.63;2063799;28;20736;-64
2023/01/02 01:25:54;;;;;;;46.83;38.30;;;;;;;4.70;100.00;102819.28;2063339;28;20734;-64
2023/01/02 01:26:55;;;;;;;46.27;39.10;;;;;;;4.70;100.00;102815.72;2063476;28;20668;-64
2023/01/02 01:27:55;;;;;;;47.03;37.27;;;;;;;4.70;100.00;102821.22;2063585;28;20563;-64
2023/01/02 01:28:56;;;;;;;46.53;37.20;;;;;;;4.24;100.00;102761.94;2063940;28;20225;-64
2023/01/02 01:29:56;;;;;;;58.10;42.43;;;;;;;4.54;100.00;102814.78;2064117;28;20197;-64
2023/01/02 01:31:26;;;;;;;119.10;48.03;;;;;;;4.46;100.00;102818.41;2063949;28;20190;-64
2023/01/02 01:32:28;;;;;;;186.98;61.65;;;;;;;4.43;100.00;102817.16;2057317;28;20590;-63
2023/01/02 01:33:30;;;;;;;157.35;74.00;;;;;;;4.22;100.00;102793.63;2063945;28;20164;-64
2023/01/02 01:34:30;;;;;;;156.13;75.60;;;;;;;4.32;100.00;102809.66;2063957;28;20203;-64
2023/01/02 01:35:32;;;;;;;263.63;94.17;;;;;;;3.51;100.00;102687.91;2064212;28;20182;-64
2023/01/02 01:36:35;;;;;;;193.80;93.95;;;;;;;4.18;100.00;102792.69;2063225;28;20300;-64
2023/01/02 01:37:38;;;;;;;137.20;87.05;;;;;;;4.32;100.00;102817.91;2069676;28;20199;-64
2023/01/02 01:38:39;;;;;;;113.95;87.63;;;;;;;4.32;100.00;102821.44;2066160;28;20287;-64
2023/01/02 01:39:39;;;;;;;151.37;93.30;;;;;;;4.29;100.00;102819.38;2064714;28;20189;-64
2023/01/02 01:40:39;;;;;;;175.57;82.90;;;;;;;4.24;100.00;102822.34;2064023;28;20203;-64
2023/01/02 01:41:40;;;;;;;294.63;110.23;;;;;;;4.28;100.00;102814.22;2063476;28;20240;-63
2023/01/02 01:42:40;;;;;;;123.10;68.97;;;;;;;3.94;100.00;102756.91;2063539;28;20177;-64
2023/01/02 01:43:49;;;;;;;74.07;63.87;;;;;;;4.36;100.00;102816.09;2064115;28;20638;-64
2023/01/02 01:44:53;;;;;;;47.75;40.75;;;;;;;4.38;100.00;102813.81;2065512;28;20556;-64
2023/01/02 01:45:54;;;;;;;39.10;33.67;;;;;;;4.33;100.00;102806.59;2065779;28;20687;-64
2023/01/02 01:46:54;;;;;;;34.37;28.57;;;;;;;4.28;100.00;102795.00;2065412;28;20715;-64
2023/01/02 01:47:58;;;;;;;30.20;26.23;;;;;;;4.25;100.00;102779.22;2065033;28;20192;-64
2023/01/02 01:49:26;;;;;;;25.67;21.30;;;;;;;4.47;100.00;102809.81;2065425;28;20205;-64
2023/01/02 01:50:31;;;;;;;45.88;38.75;;;;;;;4.50;100.00;102811.09;2057749;28;20241;-63
2023/01/02 01:51:36;;;;;;;55.28;45.47;;;;;;;4.53;100.00;102805.75;2064607;28;20201;-64
2023/01/02 01:52:43;;;;;;;29.75;26.17;;;;;;;4.57;100.00;102811.34;2065052;28;20197;-64
2023/01/02 01:53:46;;;;;;;30.20;26.50;;;;;;;4.60;100.00;102808.72;2065472;28;20190;-64
2023/01/02 01:54:55;;;;;;;35.50;29.35;;;;;;;3.92;100.00;102702.38;2065483;28;20261;-64
2023/01/02 01:56:01;;;;;;;40.42;32.50;;;;;;;4.61;100.00;102810.34;2065636;28;20251;-64
2023/01/02 01:57:12;;;;;;;34.83;30.40;;;;;;;4.24;100.00;102740.00;2065417;28;20663;-64
2023/01/02 01:58:25;;;;;;;34.70;29.65;;;;;;;4.64;100.00;102812.41;2065138;28;20256;-64
2023/01/02 01:59:26;;;;;;;34.08;29.42;;;;;;;3.93;100.00;102709.47;2065464;28;20625;-63
2023/01/02 02:00:28;;;;;;;32.70;29.00;;;;;;;4.57;100.00;102808.63;2065523;28;20591;-64
2023/01/02 02:01:29;;;;;;;32.50;28.17;;;;;;;3.95;100.00;102714.63;2064780;28;20236;-64
2023/01/02 02:02:32;;;;;;;31.77;27.93;;;;;;;4.62;100.00;102805.66;2065095;28;20208;-63
2023/01/02 02:03:34;;;;;;;32.50;27.92;;;;;;;4.64;100.00;102804.16;2065363;28;20185;-64
2023/01/02 02:04:35;;;;;;;33.00;26.88;;;;;;;4.65;100.00;102803.03;2064549;28;20184;-64
2023/01/02 02:05:36;;;;;;;33.47;28.97;;;;;;;4.40;100.00;102759.34;2064791;28;20300;-64
2023/01/02 02:06:37;;;;;;;32.20;26.58;;;;;;;4.69;100.00;102800.41;2065529;28;20236;-64
2023/01/02 02:07:43;;;;;;;29.17;24.80;;;;;;;4.30;100.00;102746.88;2069268;28;20666;-64
2023/01/02 02:09:17;;;;;;;28.02;23.52;;;;;;;4.70;100.00;102793.75;2066095;28;20178;-64
2023/01/02 02:10:18;;;;;;;37.72;30.83;;;;;;;4.67;100.00;102780.72;2059117;28;20171;-64
2023/01/02 02:11:19;;;;;;;40.17;35.20;;;;;;;4.73;100.00;102788.38;2064466;28;20185;-64
2023/01/02 02:12:19;;;;;;;40.92;35.88;;;;;;;4.72;100.00;102799.72;2065184;28;20181;-64
2023/01/02 02:13:20;;;;;;;36.87;32.43;;;;;;;4.75;100.00;102791.59;2065110;28;20687;-64
2023/01/02 02:14:20;;;;;;;38.70;33.13;;;;;;;4.73;100.00;102796.63;2065513;28;20549;-64
2023/01/02 02:15:38;;;;;;;40.37;35.37;;;;;;;4.74;100.00;102797.44;2065343;28;20642;-64
2023/01/02 02:16:53;;;;;;;35.03;31.23;;;;;;;4.74;100.00;102802.91;2065419;28;20197;-64
2023/01/02 02:17:59;;;;;;;45.97;39.13;;;;;;;4.73;100.00;102793.88;2064684;28;20227;-64
2023/01/02 02:19:18;;;;;;;40.10;35.40;;;;;;;4.72;100.00;102794.22;2058562;28;20205;-64
2023/01/02 02:20:32;;;;;;;42.83;37.03;;;;;;;4.72;100.00;102792.28;2056913;28;20756;-64
2023/01/02 02:21:47;;;;;;;43.60;37.22;;;;;;;4.72;100.00;102792.28;2056481;28;20170;-64
2023/01/02 02:23:06;;;;;;;43.10;37.35;;;;;;;4.73;100.00;102788.38;2064108;28;20177;-64
2023/01/02 02:24:42;;;;;;;43.78;38.33;;;;;;;4.35;100.00;102729.38;2058111;28;20264;-64
2023/01/02 02:25:51;;;;;;;40.65;35.70;;;;;;;4.71;100.00;102781.63;2059696;28;20214;-64
2023/01/02 02:26:57;;;;;;;44.60;38.40;;;;;;;4.14;100.00;102709.41;2061594;28;20960;-64
2023/01/02 02:28:23;;;;;;;42.92;37.67;;;;;;;4.70;100.00;102791.00;2064229;28;20314;-64
2023/01/02 02:29:44;;;;;;;42.60;37.38;;;;;;;4.72;100.00;102791.47;2065134;28;20193;-64
2023/01/02 02:31:01;;;;;;;41.55;35.25;;;;;;;4.70;100.00;102788.25;2065079;28;20181;-64
2023/01/02 02:32:16;;;;;;;41.08;35.90;;;;;;;4.68;100.00;102796.88;2056711;28;20163;-64
2023/01/02 02:33:43;;;;;;;41.00;34.95;;;;;;;4.69;100.00;102789.41;2058353;28;20248;-64
2023/01/02 02:34:51;;;;;;;38.97;34.50;;;;;;;4.68;100.00;102790.56;2061286;28;20194;-64
2023/01/02 02:36:04;;;;;;;39.78;33.53;;;;;;;4.67;100.00;102794.44;2060870;28;20627;-64
2023/01/02 02:37:16;;;;;;;47.08;34.30;;;;;;;4.67;100.00;102789.75;2060981;28;20199;-64
2023/01/02 02:38:49;;;;;;;40.88;34.72;;;;;;;4.66;100.00;102788.13;2061331;28;20652;-64
2023/01/02 02:39:59;;;;;;;40.70;34.40;;;;;;;4.09;100.00;102699.47;2062928;28;20209;-64
2023/01/02 02:41:50;;;;;;;72.70;34.33;;;;;;;4.58;100.00;102793.72;2064736;28;20221;-64
2023/01/02 02:43:09;;;;;;;102.00;34.20;;;;;;;4.52;100.00;102795.88;2059436;28;20233;-64
2023/01/02 02:44:15;;;;;;;134.88;37.67;;;;;;;4.47;100.00;102796.09;2064923;28;20584;-64
2023/01/02 02:45:24;;;;;;;102.97;31.25;;;;;;;4.48;100.00;102791.41;2064775;28;20582;-64
2023/01/02 02:46:30;;;;;;;86.35;33.45;;;;;;;3.99;100.00;102719.09;2065075;28;20265;-64
2023/01/02 02:47:39;;;;;;;53.42;30.88;;;;;;;4.46;100.00;102786.25;2065260;28;20574;-64
2023/01/02 02:48:57;;;;;;;39.95;32.85;;;;;;;4.47;100.00;102789.81;2065002;28;20257;-64
2023/01/02 02:50:18;;;;;;;41.03;32.20;;;;;;;4.47;100.00;102792.56;2063102;28;20217;-63
2023/01/02 02:51:55;;;;;;;43.30;36.10;;;;;;;4.47;100.00;102798.84;2064252;28;20182;-63
2023/01/02 02:53:05;;;;;;;43.53;35.60;;;;;;;4.03;100.00;102735.69;2064494;28;20202;-63
2023/01/02 02:54:13;;;;;;;33.75;29.65;;;;;;;4.45;100.00;102795.63;2062745;28;20172;-63
2023/01/02 02:55:39;;;;;;;53.38;32.90;;;;;;;4.46;100.00;102794.50;2058592;28;20550;-64
2023/01/02 02:56:41;;;;;;;35.78;30.67;;;;;;;4.40;100.00;102784.88;2057607;28;20223;-64
2023/01/02 02:57:44;;;;;;;44.03;33.00;;;;;;;4.12;100.00;102736.41;2059978;28;20193;-64
2023/01/02 02:58:45;;;;;;;43.05;36.83;;;;;;;4.47;100.00;102789.81;2062280;28;20198;-63
2023/01/02 02:59:46;;;;;;;45.83;34.00;;;;;;;4.46;100.00;102794.50;2058620;28;20182;-63
2023/01/02 03:00:46;;;;;;;48.93;34.13;;;;;;;4.45;100.00;102792.09;2064244;28;20811;-64
2023/01/02 03:01:47;;;;;;;93.30;34.90;;;;;;;4.44;100.00;102788.56;2056537;28;20189;-64
2023/01/02 03:02:47;;;;;;;40.33;29.00;;;;;;;4.44;100.00;102787.75;2063828;28;20194;-64
2023/01/02 03:03:48;;;;;;;34.80;30.97;;;;;;;4.35;100.00;102774.09;2058823;28;20252;-64
2023/01/02 03:04:56;;;;;;;40.77;35.07;;;;;;;4.45;100.00;102778.34;2061974;28;20469;-64
2023/01/02 03:06:15;;;;;;;41.97;35.47;;;;;;;4.42;100.00;102782.56;2067205;28;20250;-64
2023/01/02 03:07:28;;;;;;;42.95;34.95;;;;;;;4.42;100.00;102782.56;2064017;28;20194;-64
2023/01/02 03:08:55;;;;;;;32.40;29.02;;;;;;;4.38;100.00;102784.41;2058690;28;20209;-64
2023/01/02 03:10:08;;;;;;;34.42;25.75;;;;;;;4.36;100.00;102780.41;2056854;28;20171;-64
2023/01/02 03:11:09;;;;;;;29.25;26.25;;;;;;;4.24;100.00;102756.47;2056743;28;20229;-64
2023/01/02 03:12:28;;;;;;;30.38;27.20;;;;;;;4.39;100.00;102779.72;2064774;28;20264;-64
2023/01/02 03:14:02;;;;;;;92.60;36.08;;;;;;;4.38;100.00;102778.94;2064782;28;20180;-64
2023/01/02 03:15:41;;;;;;;45.15;31.00;;;;;;;4.34;100.00;102791.72;2060621;28;20202;-64
2023/01/02 03:16:46;;;;;;;100.18;34.50;;;;;;;4.30;100.00;102779.81;2056785;28;20198;-64
2023/01/02 03:18:18;;;;;;;158.93;37.50;;;;;;;4.28;100.00;102782.09;2056477;28;20206;-64
2023/01/02 03:19:27;;;;;;;218.70;34.80;;;;;;;4.29;100.00;102780.13;2052634;28;20298;-63
2023/01/02 03:20:32;;;;;;;190.35;40.53;;;;;;;3.91;100.00;102724.66;2058371;28;20676;-64
2023/01/02 03:21:39;;;;;;;190.15;41.70;;;;;;;4.27;100.00;102793.41;2064208;28;20257;-64
2023/01/02 03:22:44;;;;;;;164.98;36.92;;;;;;;4.21;100.00;102787.31;2063719;28;20170;-64
2023/01/02 03:23:47;;;;;;;129.18;38.03;;;;;;;4.18;100.00;102798.16;2056892;28;20162;-64
2023/01/02 03:24:51;;;;;;;153.75;39.75;;;;;;;4.19;100.00;102795.09;2064765;28;20200;-64
2023/01/02 03:25:52;;;;;;;113.85;31.55;;;;;;;4.22;100.00;102790.88;2057076;28;20226;-64
2023/01/02 03:27:01;;;;;;;90.93;27.80;;;;;;;3.86;100.00;102730.34;2063457;28;20197;-64
2023/01/02 03:28:04;;;;;;;41.30;27.15;;;;;;;4.23;100.00;102787.78;2064446;28;20205;-64
2023/01/02 03:29:14;;;;;;;26.75;24.15;;;;;;;4.23;100.00;102782.31;2064556;28;20193;-64
2023/01/02 03:30:19;;;;;;;47.67;32.58;;;;;;;4.23;100.00;102785.06;2064985;28;20232;-64
2023/01/02 03:31:22;;;;;;;42.75;33.03;;;;;;;4.26;100.00;102787.09;2063860;28;20190;-64
2023/01/02 03:32:28;;;;;;;36.47;29.30;;;;;;;4.26;100.00;102780.81;2069301;28;20236;-64
2023/01/02 03:33:32;;;;;;;31.63;26.23;;;;;;;4.25;100.00;102785.50;2068480;28;20197;-64
2023/01/02 03:34:37;;;;;;;33.20;27.23;;;;;;;4.24;100.00;102785.84;2064722;28;20201;-64
2023/01/02 03:35:48;;;;;;;54.55;37.03;;;;;;;4.21;100.00;102781.03;2064611;28;20213;-64
2023/01/02 03:36:56;;;;;;;59.00;35.80;;;;;;;4.26;100.00;102780.81;2064685;28;20284;-64
2023/01/02 03:37:58;;;;;;;30.25;26.02;;;;;;;3.78;100.00;102723.00;2064056;28;20202;-64
2023/01/02 03:39:17;;;;;;;40.28;31.23;;;;;;;4.21;100.00;102787.31;2064660;28;20224;-64
2023/01/02 03:40:23;;;;;;;48.28;32.22;;;;;;;4.23;100.00;102786.97;2060544;28;20229;-64
2023/01/02 03:41:29;;;;;;;49.13;31.50;;;;;;;4.23;100.00;102784.22;2064091;28;20189;-64
2023/01/02 03:42:38;;;;;;;43.03;32.15;;;;;;;3.65;100.00;102707.63;2064312;28;20202;-64
2023/01/02 03:43:42;;;;;;;31.23;26.85;;;;;;;4.21;100.00;102783.78;2064461;28;20193;-64
2023/01/02 03:44:48;;;;;;;34.20;28.58;;;;;;;4.19;100.00;102781.38;2064363;28;20228;-63
2023/01/02 03:45:57;;;;;;;48.35;35.90;;;;;;;4.03;100.00;102752.13;2064656;28;20202;-64
2023/01/02 03:47:10;;;;;;;47.47;34.15;;;;;;;4.17;100.00;102782.84;2064615;28;20178;-63
2023/01/02 03:48:30;;;;;;;49.97;33.40;;;;;;;4.14;100.00;102778.84;2064224;28;20178;-64
2023/01/02 03:49:44;;;;;;;47.72;34.42;;;;;;;4.12;100.00;102781.13;2063765;28;20292;-63
2023/01/02 03:50:49;;;;;;;44.35;32.72;;;;;;;4.10;100.00;102777.13;2064033;28;20181;-64
2023/01/02 03:51:50;;;;;;;51.22;35.97;;;;;;;4.06;100.00;102785.19;2064030;28;20320;-64
2023/01/02 03:52:50;;;;;;;47.93;35.20;;;;;;;4.02;100.00;102788.94;2064149;28;20266;-64
2023/01/02 03:53:52;;;;;;;51.83;37.77;;;;;;;3.93;100.00;102772.56;2064696;28;20181;-64
2023/01/02 03:54:55;;;;;;;46.63;32.92;;;;;;;3.92;100.00;102779.19;2064635;28;20638;-64
2023/01/02 03:56:01;;;;;;;43.30;30.30;;;;;;;3.92;100.00;102778.38;2064853;28;20540;-64
2023/01/02 03:57:09;;;;;;;34.50;29.63;;;;;;;3.90;100.00;102777.94;2056619;28;20183;-64
2023/01/02 03:58:21;;;;;;;42.85;33.80;;;;;;;3.88;100.00;102778.25;2056244;28;20186;-64
2023/01/02 03:59:24;;;;;;;45.85;33.20;;;;;;;3.85;100.00;102773.44;2056612;28;20201;-64
2023/01/02 04:00:33;;;;;;;39.25;32.15;;;;;;;3.83;100.00;102777.66;2056729;28;20350;-64
2023/01/02 04:01:46;;;;;;;40.03;31.60;;;;;;;3.27;100.00;102691.31;2056144;28;20180;-64
2023/01/02 04:03:07;;;;;;;39.47;31.55;;;;;;;3.34;100.00;102709.97;2063666;28;20172;-64
2023/01/02 04:04:26;;;;;;;35.90;29.90;;;;;;;3.66;100.00;102769.56;2062463;28;20251;-64
2023/01/02 04:05:39;;;;;;;36.28;29.90;;;;;;;3.74;100.00;102777.72;2064336;28;20174;-64
2023/01/02 04:06:44;;;;;;;40.50;30.27;;;;;;;3.73;100.00;102770.63;2063698;28;20260;-64
2023/01/02 04:08:00;;;;;;;35.63;29.75;;;;;;;3.72;100.00;102768.22;2065520;28;20627;-64
2023/01/02 04:09:09;;;;;;;36.08;29.52;;;;;;;3.72;100.00;102780.00;2064052;28;20635;-64
2023/01/02 04:10:13;;;;;;;36.63;29.05;;;;;;;3.06;100.00;102685.00;2064582;28;20550;-64
2023/01/02 04:11:17;;;;;;;34.30;28.17;;;;;;;3.64;100.00;102769.88;2062881;28;20185;-64
2023/01/02 04:12:22;;;;;;;30.63;26.00;;;;;;;3.65;100.00;102778.94;2063460;28;20185;-64
2023/01/02 04:13:31;;;;;;;32.53;28.00;;;;;;;3.66;100.00;102786.00;2064278;28;20196;-64
2023/01/02 04:14:57;;;;;;;35.80;29.05;;;;;;;3.69;100.00;102783.41;2064329;28;20202;-64
2023/01/02 04:15:59;;;;;;;34.00;29.63;;;;;;;3.70;100.00;102781.47;2064577;28;20174;-64
2023/01/02 04:17:02;;;;;;;31.20;27.77;;;;;;;3.70;100.00;102784.22;2064415;28;20218;-64
2023/01/02 04:18:19;;;;;;;37.00;30.38;;;;;;;3.51;100.00;102760.00;2063920;28;20273;-64
2023/01/02 04:19:27;;;;;;;31.27;27.58;;;;;;;3.71;100.00;102788.56;2064264;28;20194;-64
2023/01/02 04:20:33;;;;;;;29.92;26.73;;;;;;;3.71;100.00;102786.63;2064273;28;20195;-64
2023/01/02 04:21:37;;;;;;;33.80;26.25;;;;;;;3.46;100.00;102751.16;2063836;28;20170;-64
2023/01/02 04:22:45;;;;;;;30.77;27.48;;;;;;;3.56;100.00;102769.97;2063921;28;20614;-64
2023/01/02 04:23:51;;;;;;;39.22;33.17;;;;;;;3.55;100.00;102751.91;2064390;28;20170;-64
2023/01/02 04:25:02;;;;;;;42.50;33.65;;;;;;;3.77;100.00;102796.25;2064200;28;20181;-64
2023/01/02 04:26:14;;;;;;;45.90;29.90;;;;;;;3.73;100.00;102800.81;2064082;28;20270;-64
2023/01/02 04:27:25;;;;;;;52.05;38.63;;;;;;;3.73;100.00;102800.00;2064217;28;20211;-64
2023/01/02 04:28:29;;;;;;;41.20;28.08;;;;;;;3.68;100.00;102789.22;2063872;28;20184;-64
2023/01/02 04:29:30;;;;;;;51.38;34.45;;;;;;;3.66;100.00;102792.31;2064314;28;20189;-64
2023/01/02 04:30:38;;;;;;;48.33;36.92;;;;;;;3.00;100.00;102680.88;2064231;28;20189;-64
2023/01/02 04:31:50;;;;;;;41.67;35.03;;;;;;;3.63;100.00;102792.16;2063710;28;20173;-64
2023/01/02 04:32:51;;;;;;;46.03;35.10;;;;;;;3.19;100.00;102716.03;2063706;28;20178;-64
2023/01/02 04:33:56;;;;;;;52.42;36.40;;;;;;;2.90;100.00;102686.72;2064505;28;20191;-64
2023/01/02 04:34:59;;;;;;;73.70;42.47;;;;;;;3.17;100.00;102723.78;2064432;28;20185;-64
2023/01/02 04:36:07;;;;;;;49.45;39.58;;;;;;;3.50;100.00;102794.00;2064437;28;20279;-64
2023/01/02 04:37:07;;;;;;;60.47;44.25;;;;;;;3.47;100.00;102786.47;2064384;28;20236;-64
2023/01/02 04:38:10;;;;;;;62.13;46.27;;;;;;;3.42;100.00;102796.81;2063668;28;20221;-64
2023/01/02 04:39:10;;;;;;;62.45;46.60;;;;;;;3.38;100.00;102793.94;2063937;28;20193;-64
2023/01/02 04:40:27;;;;;;;56.13;43.73;;;;;;;3.36;100.00;102796.22;2060400;28;20205;-64
2023/01/02 04:41:28;;;;;;;57.90;44.53;;;;;;;3.30;100.00;102792.06;2063791;28;20651;-64
2023/01/02 04:42:28;;;;;;;60.17;45.20;;;;;;;3.26;100.00;102798.50;2063847;28;20626;-64
2023/01/02 04:43:29;;;;;;;60.10;45.33;;;;;;;3.20;100.00;102795.19;2064262;28;20546;-64
2023/01/02 04:44:29;;;;;;;62.57;46.40;;;;;;;2.33;100.00;102651.91;2063986;28;20706;-64
2023/01/02 04:45:29;;;;;;;65.03;48.07;;;;;;;3.14;100.00;102787.47;2064083;28;20181;-64
2023/01/02 04:46:30;;;;;;;67.03;48.43;;;;;;;3.12;100.00;102784.22;2064505;28;20273;-64
2023/01/02 04:47:30;;;;;;;68.53;48.87;;;;;;;3.07;100.00;102785.22;2064216;28;20236;-64
2023/01/02 04:48:31;;;;;;;68.37;50.83;;;;;;;3.03;100.00;102783.50;2063793;28;20197;-64
2023/01/02 04:49:31;;;;;;;71.20;50.93;;;;;;;2.97;100.00;102785.59;2063548;28;20744;-64
2023/01/02 04:50:32;;;;;;;65.63;48.80;;;;;;;2.94;100.00;102790.94;2064255;28;20553;-64
2023/01/02 04:51:32;;;;;;;66.97;48.30;;;;;;;2.92;100.00;102788.53;2063672;28;20288;-64
2023/01/02 04:52:33;;;;;;;64.73;49.70;;;;;;;2.92;100.00;102791.25;2063865;28;20185;-64
2023/01/02 04:53:33;;;;;;;60.90;46.33;;;;;;;2.11;100.00;102677.53;2064234;28;20682;-64
2023/01/02 04:54:34;;;;;;;66.77;48.70;;;;;;;2.89;100.00;102791.13;2064249;28;20205;-64
2023/01/02 04:55:34;;;;;;;61.50;47.57;;;;;;;2.84;100.00;102797.59;2064132;28;20690;-63
2023/01/02 04:56:34;;;;;;;61.83;46.73;;;;;;;2.81;100.00;102806.44;2064179;28;20561;-63
2023/01/02 04:58:54;;;;;;;63.88;48.28;;;;;;;2.77;100.00;102797.28;2064192;28;20197;-63
2023/01/02 04:59:55;;;;;;;67.90;48.70;;;;;;;2.73;100.00;102807.28;2064333;28;20200;-64
2023/01/02 05:00:55;;;;;;;65.33;48.10;;;;;;;2.74;100.00;102811.63;2063855;28;20619;-64